Time;durP1;ratioP1;P1;durP2;ratioP2;P2;SDS_P1;SDS_P2;PMS_P1;PMS_P2;Temp;Humidity;BMP_temperature;BMP_pressure;BME280_temperature;BME280_humidity;BME280_pressure;Samples;Min_cycle;Max_cycle;Signal;HPM_P1;HPM_P2
2022/06/03 00:01:45;;;;;;;5.60;2.80;;;;;;;22.31;55.47;100679.41;124909;1099;104236;-77
2022/06/03 00:04:31;;;;;;;4.07;2.50;;;;;;;22.34;55.30;100676.70;124960;1099;104226;-77
2022/06/03 00:07:16;;;;;;;8.63;2.97;;;;;;;22.34;55.84;100676.70;124616;1099;104185;-77
2022/06/03 00:10:09;;;;;;;5.43;3.07;;;;;;;22.30;55.53;100685.61;124755;1099;103168;-77
2022/06/03 00:12:58;;;;;;;5.20;3.30;;;;;;;22.28;56.37;100684.75;125059;1099;104175;-77
2022/06/03 00:15:58;;;;;;;4.53;2.87;;;;;;;22.26;56.22;100688.31;124963;1099;102691;-77
2022/06/03 00:18:56;;;;;;;3.87;3.00;;;;;;;22.24;56.58;100684.78;125222;1099;103320;-77
2022/06/03 00:21:48;;;;;;;4.20;3.10;;;;;;;22.19;55.62;100683.95;125172;1098;104605;-77
2022/06/03 00:24:36;;;;;;;4.90;3.43;;;;;;;22.16;55.80;100689.32;125321;1099;104299;-78
2022/06/03 00:27:16;;;;;;;6.90;3.17;;;;;;;22.10;56.61;100686.70;125159;1099;104185;-78
2022/06/03 00:29:58;;;;;;;7.03;3.40;;;;;;;22.04;56.60;100692.09;125057;1099;102818;-77
2022/06/03 00:33:02;;;;;;;4.87;3.27;;;;;;;22.01;56.58;100686.78;125086;1098;104204;-77
2022/06/03 00:36:11;;;;;;;5.57;3.10;;;;;;;21.96;56.00;100680.60;125025;1099;104268;-77
2022/06/03 00:38:52;;;;;;;10.80;3.50;;;;;;;21.95;56.70;100686.83;125151;1099;104288;-77
2022/06/03 00:41:41;;;;;;;5.17;2.90;;;;;;;21.96;57.35;100677.92;125038;1099;109346;-77
2022/06/03 00:44:40;;;;;;;6.60;3.17;;;;;;;22.01;57.23;100670.75;125010;1099;104245;-77
2022/06/03 00:47:23;;;;;;;4.77;3.40;;;;;;;22.04;57.28;100681.41;125067;1099;104233;-77
2022/06/03 00:50:12;;;;;;;10.93;3.60;;;;;;;21.99;56.52;100686.80;125162;1099;104438;-77
2022/06/03 00:53:12;;;;;;;7.70;3.43;;;;;;;21.90;57.55;100692.20;126370;1098;101679;-78
2022/06/03 00:56:09;;;;;;;5.50;3.03;;;;;;;21.77;57.07;100704.78;126041;1099;101905;-77
2022/06/03 00:58:53;;;;;;;6.17;3.50;;;;;;;21.64;58.30;100709.30;125994;1098;102765;-78
2022/06/03 01:01:31;;;;;;;6.50;3.30;;;;;;;21.52;58.40;100715.62;125770;1099;104198;-77
2022/06/03 01:04:27;;;;;;;9.03;3.63;;;;;;;21.45;58.17;100711.16;124780;1099;104345;-78
2022/06/03 01:07:13;;;;;;;6.10;3.70;;;;;;;21.36;59.37;100708.55;126332;1099;104220;-77
2022/06/03 01:10:12;;;;;;;7.87;3.33;;;;;;;21.25;58.85;100699.72;125592;1099;103341;-78
2022/06/03 01:13:20;;;;;;;6.07;3.53;;;;;;;21.13;60.20;100696.22;127127;1099;104146;-78
2022/06/03 01:15:58;;;;;;;6.10;3.80;;;;;;;21.01;60.22;100706.95;125479;1099;103025;-77
2022/06/03 01:18:50;;;;;;;6.97;3.90;;;;;;;20.95;61.11;100722.97;125958;1099;102354;-78
2022/06/03 01:21:39;;;;;;;8.77;4.00;;;;;;;20.86;60.64;100718.54;126527;1099;104169;-78
2022/06/03 01:25:01;;;;;;;10.13;4.17;;;;;;;20.78;61.65;100723.02;126057;1099;102864;-78
2022/06/03 01:28:11;;;;;;;7.33;4.17;;;;;;;20.65;61.72;100712.38;126862;1099;102250;-79
2022/06/03 01:31:02;;;;;;;10.40;4.03;;;;;;;20.56;62.12;100709.70;126763;1099;104367;-79
2022/06/03 01:33:51;;;;;;;6.67;4.17;;;;;;;20.48;62.85;100723.05;126734;1099;104460;-77
2022/06/03 01:37:04;;;;;;;5.97;4.07;;;;;;;20.42;61.57;100722.17;125623;1099;104259;-78
2022/06/03 01:39:57;;;;;;;11.27;4.57;;;;;;;20.37;62.96;100724.84;125217;1102;104201;-78
2022/06/03 01:43:08;;;;;;;8.53;4.20;;;;;;;20.31;63.94;100723.97;125583;1106;102502;-78
2022/06/03 01:46:07;;;;;;;7.70;4.37;;;;;;;20.20;63.95;100723.98;125661;1102;104296;-77
2022/06/03 01:49:17;;;;;;;8.30;4.60;;;;;;;20.15;63.89;100731.06;124723;1105;102602;-78
2022/06/03 01:52:30;;;;;;;10.03;4.80;;;;;;;20.09;65.29;100722.19;125505;1105;102845;-78
2022/06/03 01:55:34;;;;;;;8.73;4.90;;;;;;;20.04;64.72;100720.40;124292;1102;103041;-78
2022/06/03 02:02:14;;;;;;;10.47;4.63;;;;;;;20.03;65.03;100722.19;124915;1102;104602;-78
2022/06/03 02:05:07;;;;;;;10.13;5.00;;;;;;;20.06;65.04;100724.85;124913;1105;107002;-78
2022/06/03 02:07:54;;;;;;;9.83;4.80;;;;;;;20.08;64.34;100728.39;124543;1102;102277;-77
2022/06/03 02:11:00;;;;;;;8.20;4.43;;;;;;;20.04;65.68;100729.30;124639;1102;102995;-77
2022/06/03 02:13:57;;;;;;;9.93;5.20;;;;;;;19.99;65.63;100732.84;125003;1102;102233;-77
2022/06/03 02:17:22;;;;;;;9.13;4.80;;;;;;;19.92;65.37;100731.95;124947;1102;104366;-78
2022/06/03 02:20:26;;;;;;;9.43;4.75;;;;;;;19.82;65.87;100732.81;125251;1102;104373;-78
2022/06/03 02:23:29;;;;;;;10.23;5.22;;;;;;;19.77;66.62;100737.25;124478;1106;104357;-77
2022/06/03 02:26:17;;;;;;;9.20;4.83;;;;;;;19.74;66.41;100748.74;124761;1102;104128;-77
2022/06/03 02:32:24;;;;;;;10.33;5.30;;;;;;;19.69;66.87;100755.84;124553;1105;104203;-78
2022/06/03 02:35:23;;;;;;;10.37;5.47;;;;;;;19.64;67.26;100755.83;125060;1102;102631;-78
2022/06/03 02:38:24;;;;;;;10.83;5.70;;;;;;;19.58;67.67;100756.69;125070;1102;104297;-78
2022/06/03 02:41:22;;;;;;;8.60;4.97;;;;;;;19.51;68.06;100767.31;125351;1102;101884;-78
2022/06/03 02:44:26;;;;;;;11.90;5.80;;;;;;;19.46;68.56;100755.77;125558;1102;102333;-78
2022/06/03 02:47:54;;;;;;;9.15;5.67;;;;;;;19.40;70.00;100756.66;125085;1105;104194;-78
2022/06/03 02:51:08;;;;;;;9.07;5.47;;;;;;;19.35;68.51;100766.37;125395;1105;102107;-78
2022/06/03 02:54:21;;;;;;;11.87;5.70;;;;;;;19.30;68.63;100774.34;125111;1102;102810;-79
2022/06/03 02:57:23;;;;;;;13.67;6.23;;;;;;;19.29;68.74;100782.31;125484;1102;102395;-78
2022/06/03 03:00:20;;;;;;;11.17;6.17;;;;;;;19.30;69.92;100781.44;125328;1102;102701;-78
2022/06/03 03:03:31;;;;;;;10.90;5.67;;;;;;;19.27;69.41;100789.41;124878;1102;102842;-78
2022/06/03 03:06:38;;;;;;;11.77;6.17;;;;;;;19.26;70.24;100796.52;125604;1102;108154;-78
2022/06/03 03:09:23;;;;;;;12.40;6.60;;;;;;;19.29;69.27;100808.91;125526;1102;102218;-79
2022/06/03 03:12:25;;;;;;;10.73;5.63;;;;;;;19.32;70.36;100803.61;125307;1102;102290;-78
2022/06/03 03:15:18;;;;;;;13.47;6.30;;;;;;;19.33;70.21;100800.95;125598;1102;102112;-77
2022/06/03 03:18:19;;;;;;;17.10;6.50;;;;;;;19.34;70.66;100801.87;125594;1102;101980;-78
2022/06/03 03:21:16;;;;;;;13.87;6.03;;;;;;;19.33;70.30;100806.28;125526;1099;103474;-78
2022/06/03 03:24:37;;;;;;;12.83;5.93;;;;;;;19.38;69.62;100815.19;125191;1102;104159;-77
2022/06/03 03:27:42;;;;;;;12.10;5.97;;;;;;;19.45;69.92;100812.56;124859;1103;110234;-78
2022/06/03 03:30:21;;;;;;;13.80;6.12;;;;;;;19.48;70.31;100817.90;124834;1105;102596;-77
2022/06/03 03:33:14;;;;;;;13.07;6.03;;;;;;;19.51;70.58;100828.52;124767;1102;104234;-78
2022/06/03 03:36:13;;;;;;;11.65;5.70;;;;;;;19.55;70.40;100835.65;125047;1103;102838;-78
2022/06/03 03:39:14;;;;;;;12.97;6.10;;;;;;;19.60;70.24;100835.67;124973;1102;104188;-78
2022/06/03 03:42:20;;;;;;;14.37;6.20;;;;;;;19.65;70.24;100834.81;124771;1102;104224;-78
2022/06/03 03:45:26;;;;;;;11.10;5.53;;;;;;;19.71;70.11;100841.91;125461;1102;104165;-78
2022/06/03 03:48:39;;;;;;;8.73;5.53;;;;;;;19.78;69.96;100845.55;124676;1102;120059;-78
2022/06/03 03:51:29;;;;;;;11.10;5.87;;;;;;;19.87;70.19;100841.13;125166;1102;104232;-78
2022/06/03 03:54:45;;;;;;;11.07;5.50;;;;;;;19.90;69.97;100840.26;125430;1102;104182;-78
2022/06/03 03:57:55;;;;;;;9.57;5.73;;;;;;;19.93;70.09;100851.80;124919;1105;104443;-78
2022/06/03 04:01:04;;;;;;;14.30;5.27;;;;;;;19.99;70.18;100850.02;126531;1098;104217;-77
2022/06/03 04:04:14;;;;;;;11.10;5.50;;;;;;;20.06;70.41;100857.16;125025;1099;102016;-78
2022/06/03 04:07:10;;;;;;;10.37;5.47;;;;;;;20.10;69.60;100862.50;124929;1099;102091;-78
2022/06/03 04:10:26;;;;;;;12.40;5.50;;;;;;;20.17;70.17;100859.84;124974;1099;102791;-77
2022/06/03 04:13:46;;;;;;;11.20;5.20;;;;;;;20.25;69.37;100866.95;125172;1099;104219;-78
2022/06/03 04:17:11;;;;;;;9.83;5.17;;;;;;;20.32;69.87;100882.95;125547;1099;104169;-78
2022/06/03 04:19:53;;;;;;;;;;;;;;;20.34;70.00;100876.74;125239;1099;117316;-77
2022/06/03 04:22:59;;;;;;;8.85;4.90;;;;;;;20.39;69.64;100888.29;125520;1098;104401;-77
2022/06/03 04:26:06;;;;;;;8.40;4.80;;;;;;;20.42;69.97;100895.41;125881;1099;104089;-78
2022/06/03 04:29:34;;;;;;;13.67;5.03;;;;;;;20.51;69.68;100913.20;125839;1099;104067;-78
2022/06/03 04:32:35;;;;;;;11.00;5.80;;;;;;;20.57;69.18;100913.19;125588;1098;102212;-79
2022/06/03 04:35:42;;;;;;;10.27;5.60;;;;;;;20.63;68.50;100915.86;126003;1099;104198;-78
2022/06/03 04:39:08;;;;;;;13.17;4.97;;;;;;;20.71;68.73;100921.23;125152;1099;104213;-78
2022/06/03 04:42:21;;;;;;;9.37;5.27;;;;;;;20.74;69.13;100932.81;126290;1099;101928;-79
2022/06/03 04:45:38;;;;;;;10.93;5.50;;;;;;;20.80;69.04;100939.91;126794;1099;104295;-80
2022/06/03 04:51:56;;;;;;;10.03;4.67;;;;;;;20.95;67.82;100960.38;125808;1102;102981;-79
2022/06/03 04:55:20;;;;;;;9.40;4.70;;;;;;;21.03;68.41;100971.92;125516;1102;104580;-80
2022/06/03 04:58:33;;;;;;;8.57;4.83;;;;;;;21.13;68.16;100962.13;125664;1102;104092;-79
2022/06/03 05:02:15;;;;;;;10.30;5.00;;;;;;;21.18;67.08;100971.92;125531;1102;109469;-80
2022/06/03 05:12:22;;;;;;;11.50;5.57;;;;;;;21.34;67.16;100978.12;125673;1105;104194;-79
2022/06/03 05:15:51;;;;;;;9.77;4.80;;;;;;;21.49;66.75;100990.62;125817;1105;104184;-79
2022/06/03 05:22:25;;;;;;;9.77;4.93;;;;;;;21.92;66.79;100994.08;125167;1106;104204;-80
2022/06/03 05:25:35;;;;;;;10.10;5.13;;;;;;;22.00;66.71;100998.52;125593;1105;104514;-78
2022/06/03 05:39:25;;;;;;;10.23;5.77;;;;;;;21.94;65.72;100997.62;125548;1105;104163;-78
2022/06/03 05:42:27;;;;;;;11.73;5.90;;;;;;;21.93;65.70;101004.75;125396;1106;103466;-79
2022/06/03 05:45:37;;;;;;;9.13;5.47;;;;;;;21.89;64.77;101014.57;125823;1106;102982;-80
2022/06/03 05:55:56;;;;;;;10.57;5.93;;;;;;;22.00;64.56;101010.96;125705;1109;102252;-78
2022/06/03 05:58:51;;;;;;;12.50;6.10;;;;;;;22.03;65.30;101014.53;125466;1109;102428;-78
2022/06/03 06:05:21;;;;;;;;;;;;;;;;;;;;;
2022/06/03 06:09:08;;;;;;;;;;;;;;;;;;;;;
2022/06/03 06:12:38;;;;;;;10.70;5.50;;;;;;;22.48;63.79;100992.95;125191;1109;104366;-79
2022/06/03 06:18:52;;;;;;;8.53;5.70;;;;;;;22.57;63.87;100992.91;125183;1108;103582;-81
2022/06/03 06:22:16;;;;;;;12.23;6.23;;;;;;;22.72;63.06;100991.93;125793;1105;102488;-80
2022/06/03 06:25:38;;;;;;;8.00;5.70;;;;;;;22.84;63.56;100980.23;125433;1105;104233;-80
2022/06/03 06:28:56;;;;;;;10.23;6.03;;;;;;;22.97;62.79;100981.94;125041;1107;104371;-80
2022/06/03 06:32:04;;;;;;;10.73;5.90;;;;;;;23.08;62.65;100971.17;124811;1106;105475;-78
2022/06/03 06:34:57;;;;;;;11.67;6.33;;;;;;;23.19;62.97;100978.20;125489;1106;103592;-79
2022/06/03 06:38:19;;;;;;;11.13;6.20;;;;;;;23.30;62.37;100984.38;125527;1106;102442;-79
2022/06/03 06:41:18;;;;;;;10.17;6.13;;;;;;;23.44;62.12;100981.57;124929;1105;104227;-78
2022/06/03 06:47:54;;;;;;;10.97;6.23;;;;;;;23.98;59.75;100989.94;125761;1104;103288;-80
2022/06/03 06:54:45;;;;;;;10.73;6.00;;;;;;;24.08;59.46;100979.98;125472;1105;103074;-81
2022/06/03 06:57:52;;;;;;;10.70;5.70;;;;;;;24.12;59.41;100975.45;125115;1106;102113;-83
2022/06/03 07:04:41;;;;;;;;;;;;;;;24.00;57.42;100982.75;125557;1109;112020;-82
2022/06/03 07:11:12;;;;;;;13.13;5.90;;;;;;;24.16;57.97;100979.88;124748;1114;102969;-82
2022/06/03 07:13:57;;;;;;;9.67;5.83;;;;;;;24.25;57.84;100986.91;124771;1112;103993;-80
2022/06/03 07:28:15;;;;;;;14.00;6.50;;;;;;;24.88;57.49;100988.72;125376;1109;102084;-81
2022/06/03 07:37:52;;;;;;;10.00;6.43;;;;;;;24.76;55.31;100995.15;125337;1109;102953;-81
2022/06/03 07:48:07;;;;;;;9.10;6.30;;;;;;;24.97;54.73;100995.75;125834;1105;101574;-80
2022/06/03 08:20:09;;;;;;;10.73;6.40;;;;;;;25.49;53.79;101040.53;125753;1105;102024;-79
2022/06/03 08:23:11;;;;;;;9.10;6.10;;;;;;;25.73;53.79;101031.16;125653;1109;102675;-78
2022/06/03 08:28:59;;;;;;;11.97;6.07;;;;;;;25.88;52.97;101039.84;125415;1109;102440;-78
2022/06/03 08:31:34;;;;;;;10.77;6.33;;;;;;;25.83;52.90;101046.17;125292;1109;102453;-79
2022/06/03 08:37:35;;;;;;;8.77;5.87;;;;;;;26.11;51.79;101036.73;125318;1109;102790;-79
2022/06/03 08:40:34;;;;;;;13.23;6.00;;;;;;;26.14;51.32;101036.67;125419;1109;102453;-80
2022/06/03 08:43:38;;;;;;;11.93;6.40;;;;;;;26.12;51.18;101042.08;125453;1109;102687;-79
2022/06/03 08:46:24;;;;;;;11.07;6.27;;;;;;;26.21;50.56;101050.87;125654;1109;102088;-80
2022/06/03 08:49:25;;;;;;;12.43;6.27;;;;;;;26.30;50.74;101048.89;125163;1105;110130;-78
2022/06/03 08:56:15;;;;;;;11.90;6.97;;;;;;;26.29;50.63;101048.93;125249;1109;103196;-80
2022/06/03 08:59:11;;;;;;;10.43;6.30;;;;;;;26.42;50.06;101038.78;124865;1109;109419;-77
2022/06/03 09:02:42;;;;;;;10.95;7.00;;;;;;;26.56;49.71;101047.44;125329;1102;103181;-78
2022/06/03 09:05:23;;;;;;;12.63;7.07;;;;;;;26.59;50.21;101035.73;125200;1102;102167;-78
2022/06/03 09:08:26;;;;;;;13.20;7.00;;;;;;;26.71;49.31;101036.36;125283;1102;103147;-78
2022/06/03 09:11:22;;;;;;;14.40;7.13;;;;;;;26.87;49.66;101044.09;124730;1105;103091;-78
2022/06/03 09:14:22;;;;;;;;;;;;;;;26.77;48.40;101039.82;125030;1105;105680;-78
2022/06/03 09:17:10;;;;;;;12.07;7.37;;;;;;;26.80;48.58;101042.45;125176;1105;102223;-78
2022/06/03 09:20:04;;;;;;;9.73;6.97;;;;;;;26.86;48.31;101034.23;124778;1105;102498;-81
2022/06/03 09:22:37;;;;;;;12.00;7.47;;;;;;;26.90;48.83;101027.86;125276;1109;102619;-79
2022/06/03 09:25:23;;;;;;;12.63;7.60;;;;;;;26.93;48.71;101029.57;124837;1109;103086;-80
2022/06/03 09:28:05;;;;;;;11.48;7.22;;;;;;;26.93;48.35;101038.55;125246;1109;103188;-80
2022/06/03 09:31:08;;;;;;;9.63;6.73;;;;;;;26.96;48.52;101035.79;125516;1109;102456;-81
2022/06/03 09:34:04;;;;;;;13.13;6.93;;;;;;;27.08;47.93;101034.59;125182;1109;103240;-79
2022/06/03 09:37:05;;;;;;;10.27;6.73;;;;;;;27.00;46.99;101055.44;125066;1109;103595;-80
2022/06/03 09:39:42;;;;;;;10.63;6.60;;;;;;;26.99;47.82;101045.58;124992;1109;103917;-80
2022/06/03 09:42:35;;;;;;;13.07;7.13;;;;;;;27.05;48.12;101043.66;125208;1105;102447;-81
2022/06/03 09:45:25;;;;;;;12.20;7.43;;;;;;;27.12;46.93;101041.69;125350;1106;102470;-82
2022/06/03 09:48:31;;;;;;;10.73;6.97;;;;;;;27.12;47.25;101041.69;125432;1105;102187;-80
2022/06/03 09:52:02;;;;;;;11.70;6.67;;;;;;;27.09;45.88;101047.14;124781;1109;104727;-80
2022/06/03 09:54:58;;;;;;;13.35;7.92;;;;;;;27.13;46.46;101040.77;124754;1105;104338;-79
2022/06/03 09:57:32;;;;;;;12.57;8.10;;;;;;;27.25;45.84;101036.87;125829;1105;102161;-79
2022/06/03 10:00:21;;;;;;;13.47;7.80;;;;;;;27.32;46.43;101043.05;126037;1105;102873;-80
2022/06/03 10:05:51;;;;;;;12.53;8.43;;;;;;;27.46;45.93;101037.27;125927;1105;102247;-79
2022/06/03 10:14:23;;;;;;;18.50;8.70;;;;;;;27.67;45.72;101023.23;125530;1102;103066;-78
2022/06/03 10:17:19;;;;;;;14.60;8.50;;;;;;;27.81;46.20;101033.64;125653;1102;102229;-80
2022/06/03 10:19:53;;;;;;;15.90;8.57;;;;;;;27.87;44.64;101036.16;125610;1105;119230;-80
2022/06/03 10:22:26;;;;;;;17.87;8.40;;;;;;;27.86;45.15;101034.41;125676;1102;102243;-79
2022/06/03 10:24:59;;;;;;;12.57;7.47;;;;;;;27.85;45.27;101034.46;125449;1105;103876;-79
2022/06/03 10:27:31;;;;;;;;;;;;;;;27.72;43.31;101036.58;125279;1105;102422;-78
2022/06/03 10:30:05;;;;;;;13.37;7.80;;;;;;;27.64;43.93;101036.78;125587;1105;103818;-79
2022/06/03 10:33:07;;;;;;;12.23;7.70;;;;;;;27.71;44.15;101042.92;125222;1102;102587;-80
2022/06/03 10:35:50;;;;;;;16.73;8.80;;;;;;;27.65;44.98;101035.88;124815;1106;103410;-79
2022/06/03 10:38:38;;;;;;;15.47;8.43;;;;;;;27.73;45.02;101038.36;124658;1105;104332;-79
2022/06/03 10:41:10;;;;;;;14.53;8.73;;;;;;;27.84;44.87;101025.46;125464;1105;108280;-78
2022/06/03 10:43:54;;;;;;;14.10;8.53;;;;;;;27.75;44.58;101036.50;124903;1106;102562;-79
2022/06/03 10:46:42;;;;;;;16.63;8.67;;;;;;;27.86;44.34;101033.51;125690;1105;102825;-79
2022/06/03 10:49:30;;;;;;;14.37;7.40;;;;;;;27.91;43.53;101032.47;125253;1106;103313;-80
2022/06/03 11:04:00;;;;;;;17.50;7.93;;;;;;;27.85;41.33;101012.89;125248;1106;102316;-78
2022/06/03 11:06:37;;;;;;;17.30;7.27;;;;;;;27.77;41.48;101010.41;124701;1106;103147;-79
2022/06/03 11:09:08;;;;;;;12.10;6.97;;;;;;;27.79;41.58;101008.53;125640;1105;104211;-80
2022/06/03 11:12:10;;;;;;;14.90;7.00;;;;;;;27.81;42.08;100995.89;125161;1104;104230;-81
2022/06/03 11:14:46;;;;;;;13.67;8.17;;;;;;;27.91;42.10;100997.41;125319;1107;117986;-79
2022/06/03 11:17:25;;;;;;;15.03;8.08;;;;;;;27.97;42.19;100988.27;124445;1106;104313;-80
2022/06/03 11:20:02;;;;;;;13.50;7.20;;;;;;;27.97;41.68;100999.96;124588;1106;103058;-79
2022/06/03 11:22:35;;;;;;;14.77;7.30;;;;;;;27.99;42.06;100999.92;125052;1105;105498;-80
2022/06/03 11:25:14;;;;;;;16.77;7.65;;;;;;;28.05;41.48;100990.74;125077;1105;104172;-79
2022/06/03 11:28:20;;;;;;;14.07;7.50;;;;;;;28.02;40.68;101001.62;125117;1109;103636;-79
2022/06/03 11:31:25;;;;;;;13.67;8.43;;;;;;;27.98;41.49;100995.44;124799;1109;103142;-79
2022/06/03 11:34:22;;;;;;;15.57;8.30;;;;;;;27.99;41.20;100989.13;124545;1105;104163;-79
2022/06/03 11:38:36;;;;;;;17.67;8.03;;;;;;;28.04;41.73;100978.20;125717;1102;102965;-80
2022/06/03 11:41:34;;;;;;;;;;;;;;;;;;;;;
2022/06/03 11:44:17;;;;;;;13.30;6.85;;;;;;;28.21;40.03;100989.37;125726;1102;102293;-81
2022/06/03 11:47:01;;;;;;;14.90;8.20;;;;;;;28.24;40.90;100975.80;125438;1106;102633;-81
2022/06/03 11:49:43;;;;;;;13.90;7.67;;;;;;;28.32;40.82;100975.56;125577;1102;107022;-80
2022/06/03 11:52:22;;;;;;;12.90;7.30;;;;;;;28.36;40.36;100968.24;125374;1106;102010;-80
2022/06/03 11:55:04;;;;;;;14.23;8.00;;;;;;;28.39;40.75;100970.84;124823;1103;104163;-81
2022/06/03 11:57:57;;;;;;;14.83;7.80;;;;;;;28.44;40.13;100987.80;125411;1105;103605;-80
2022/06/03 12:00:33;;;;;;;;;;;;;;;28.34;39.44;100976.39;125515;1105;120210;-81
2022/06/03 12:03:17;;;;;;;13.03;7.72;;;;;;;28.36;38.99;100974.55;124554;1105;104224;-78
2022/06/03 12:06:06;;;;;;;11.73;7.23;;;;;;;28.44;39.57;100974.31;124523;1106;104153;-80
2022/06/03 12:15:46;;;;;;;14.47;7.63;;;;;;;28.86;39.80;100957.69;125996;1105;102209;-79
2022/06/03 12:18:57;;;;;;;14.17;7.60;;;;;;;28.94;38.82;100960.13;124977;1105;102687;-80
2022/06/03 12:24:54;;;;;;;12.73;6.67;;;;;;;28.73;38.50;100950.91;125528;1102;103507;-79
2022/06/03 12:27:41;;;;;;;12.10;6.50;;;;;;;28.71;38.16;100952.80;125363;1105;104242;-78
2022/06/03 12:30:47;;;;;;;13.00;7.00;;;;;;;28.68;37.84;100945.66;124624;1105;103568;-78
2022/06/03 12:33:33;;;;;;;14.17;6.20;;;;;;;28.80;38.48;100942.56;125303;1105;102865;-79
2022/06/03 12:36:53;;;;;;;12.53;6.20;;;;;;;28.86;38.08;100941.48;125282;1105;108307;-77
2022/06/03 12:39:58;;;;;;;10.50;5.55;;;;;;;28.74;37.97;100945.47;125763;1105;102983;-79
2022/06/03 12:42:45;;;;;;;11.63;5.60;;;;;;;28.61;37.33;100944.98;125933;1105;102517;-78
2022/06/03 12:45:33;;;;;;;7.63;5.17;;;;;;;28.63;37.39;100936.84;125888;1105;103265;-77
2022/06/03 12:48:53;;;;;;;9.10;5.27;;;;;;;28.69;37.80;100945.61;125245;1105;104441;-79
2022/06/03 12:55:36;;;;;;;9.00;5.10;;;;;;;28.79;37.08;100937.21;125451;1105;104475;-79
2022/06/03 12:58:50;;;;;;;8.53;4.47;;;;;;;28.73;36.69;100938.28;125111;1108;108441;-78
2022/06/03 13:01:43;;;;;;;9.77;4.47;;;;;;;28.67;36.72;100935.78;125163;1109;102467;-78
2022/06/03 13:04:47;;;;;;;9.73;4.73;;;;;;;28.65;36.43;100935.84;125013;1108;104239;-78
2022/06/03 13:08:01;;;;;;;9.50;4.60;;;;;;;28.58;36.27;100934.30;124977;1109;104304;-79
2022/06/03 13:11:10;;;;;;;13.53;4.93;;;;;;;28.58;36.34;100936.98;125006;1109;102394;-79
2022/06/03 13:14:08;;;;;;;11.37;4.60;;;;;;;28.55;36.27;100936.16;124881;1105;104329;-78
2022/06/03 13:16:52;;;;;;;9.00;4.40;;;;;;;28.57;35.85;100940.58;125094;1105;104249;-79
2022/06/03 13:19:57;;;;;;;9.63;4.10;;;;;;;28.44;35.91;100937.39;125281;1105;104235;-78
2022/06/03 13:22:57;;;;;;;6.30;4.10;;;;;;;28.48;36.04;100938.17;125408;1105;102228;-80
2022/06/03 13:25:49;;;;;;;8.50;4.67;;;;;;;28.55;36.08;100947.86;125256;1105;103769;-79
2022/06/03 13:28:46;;;;;;;12.13;3.93;;;;;;;28.60;36.18;100935.11;125247;1102;102371;-79
2022/06/03 13:34:47;;;;;;;9.37;3.50;;;;;;;28.58;36.09;100953.19;125586;1102;103106;-77
2022/06/03 13:37:50;;;;;;;9.03;3.80;;;;;;;28.56;35.49;100944.20;125114;1105;103054;-78
2022/06/03 13:40:34;;;;;;;6.17;3.57;;;;;;;28.56;35.38;100941.50;125234;1105;104086;-77
2022/06/03 13:43:35;;;;;;;10.03;4.00;;;;;;;28.50;35.06;100937.20;124516;1105;104698;-78
2022/06/03 13:46:29;;;;;;;9.17;3.77;;;;;;;28.50;35.28;100942.60;125222;1105;103277;-79
2022/06/03 13:49:06;;;;;;;8.90;3.57;;;;;;;28.51;35.36;100936.25;125158;1105;103747;-79
2022/06/03 13:51:59;;;;;;;10.87;3.77;;;;;;;28.59;35.41;100932.46;125281;1105;102967;-80
2022/06/03 13:54:48;;;;;;;7.53;3.27;;;;;;;28.59;35.22;100930.64;125279;1105;104233;-77
2022/06/03 13:57:38;;;;;;;8.53;3.60;;;;;;;28.51;35.17;100932.67;124458;1106;102709;-79
2022/06/03 14:00:27;;;;;;;6.17;3.40;;;;;;;28.48;34.84;100930.08;124368;1105;102186;-78
2022/06/03 14:03:16;;;;;;;7.22;3.87;;;;;;;28.48;35.12;100938.17;125349;1106;103545;-77
2022/06/03 14:06:02;;;;;;;6.87;3.60;;;;;;;28.44;35.36;100929.30;125282;1105;103585;-77
2022/06/03 14:08:41;;;;;;;9.80;3.87;;;;;;;28.44;35.35;100929.30;125318;1105;104242;-77
2022/06/03 14:11:21;;;;;;;8.97;3.73;;;;;;;28.46;35.51;100923.86;124744;1105;104227;-77
2022/06/03 14:14:04;;;;;;;7.50;3.40;;;;;;;28.45;35.36;100927.47;125382;1103;104110;-77
2022/06/03 14:16:49;;;;;;;8.10;3.40;;;;;;;28.39;35.07;100933.06;124554;1105;102841;-77
2022/06/03 14:19:54;;;;;;;6.00;3.90;;;;;;;28.34;35.50;100938.61;124453;1102;103364;-78
2022/06/03 14:22:39;;;;;;;11.70;4.00;;;;;;;28.34;35.53;100927.81;125361;1102;103209;-79
2022/06/03 14:25:28;;;;;;;7.37;3.47;;;;;;;28.36;35.72;100922.37;125243;1106;104238;-77
2022/06/03 14:28:11;;;;;;;6.40;3.30;;;;;;;28.36;35.61;100927.77;125306;1105;102318;-78
2022/06/03 14:30:56;;;;;;;6.23;3.50;;;;;;;28.35;35.51;100928.72;124736;1102;103490;-77
2022/06/03 14:33:36;;;;;;;7.85;3.67;;;;;;;28.31;35.21;100934.21;124476;1102;104192;-78
2022/06/03 14:36:14;;;;;;;6.53;3.30;;;;;;;28.33;35.27;100926.06;124677;1102;103461;-77
2022/06/03 14:38:52;;;;;;;6.30;3.67;;;;;;;28.36;35.04;100919.67;124587;1102;103698;-77
2022/06/03 14:41:30;;;;;;;6.97;3.27;;;;;;;28.31;35.12;100920.72;124422;1106;103107;-78
2022/06/03 14:44:11;;;;;;;9.90;3.80;;;;;;;28.30;35.36;100915.37;124659;1103;103587;-78
2022/06/03 14:47:09;;;;;;;7.28;3.80;;;;;;;28.35;34.92;100926.02;125428;1102;104677;-78
2022/06/03 14:50:03;;;;;;;5.50;3.10;;;;;;;28.29;34.96;100919.86;125380;1105;104159;-77
2022/06/03 14:52:43;;;;;;;7.87;3.27;;;;;;;28.20;35.13;100919.27;125426;1102;102583;-78
2022/06/03 14:55:22;;;;;;;3.30;3.00;;;;;;;28.15;34.92;100916.72;125657;1102;102412;-78
2022/06/03 14:58:20;;;;;;;7.70;2.93;;;;;;;28.08;34.69;100921.42;125256;1105;104179;-78
2022/06/03 15:01:57;;;;;;;7.43;3.27;;;;;;;28.09;34.66;100914.20;125538;1105;102594;-78
2022/06/03 15:04:51;;;;;;;8.63;3.60;;;;;;;28.12;34.41;100917.69;125388;1105;104127;-78
2022/06/03 15:08:17;;;;;;;10.13;3.70;;;;;;;28.11;34.64;100917.73;125979;1105;101972;-78
2022/06/03 15:11:07;;;;;;;6.23;3.13;;;;;;;28.08;34.69;100917.83;125393;1105;102343;-77
2022/06/03 15:13:56;;;;;;;5.50;3.30;;;;;;;28.04;34.29;100910.78;124964;1105;118506;-78
2022/06/03 15:16:30;;;;;;;5.97;3.20;;;;;;;28.06;34.55;100906.20;125463;1105;104181;-78
2022/06/03 15:19:10;;;;;;;7.07;3.17;;;;;;;28.06;34.44;100912.48;125431;1102;104123;-77
2022/06/03 15:21:52;;;;;;;6.90;3.23;;;;;;;28.06;34.49;100903.52;125482;1105;104259;-77
2022/06/03 15:24:27;;;;;;;6.97;2.70;;;;;;;28.01;34.58;100905.48;125239;1102;104169;-78
2022/06/03 15:27:14;;;;;;;6.87;3.30;;;;;;;27.91;34.50;100907.55;124947;1105;104252;-78
2022/06/03 15:33:21;;;;;;;5.67;3.00;;;;;;;27.88;34.54;100910.33;125421;1102;104121;-77
2022/06/03 15:36:06;;;;;;;4.47;2.80;;;;;;;27.89;34.43;100909.38;125147;1103;104262;-78
2022/06/03 15:39:14;;;;;;;6.77;2.67;;;;;;;27.90;34.67;100912.03;124991;1106;104291;-78
2022/06/03 15:41:52;;;;;;;4.00;2.90;;;;;;;27.87;34.08;100905.86;125188;1102;102280;-77
2022/06/03 15:44:42;;;;;;;4.07;2.77;;;;;;;27.80;34.54;100905.16;125545;1102;108712;-77
2022/06/03 15:47:36;;;;;;;;;;;;;;;27.73;34.61;100915.22;125156;1102;102312;-78
2022/06/03 15:50:15;;;;;;;3.70;2.70;;;;;;;27.70;34.18;100909.05;125440;1105;102432;-77
2022/06/03 15:52:56;;;;;;;5.47;2.60;;;;;;;27.68;33.97;100908.22;125347;1105;102335;-77
2022/06/03 15:55:54;;;;;;;3.43;2.30;;;;;;;27.69;34.23;100907.27;125099;1099;103368;-77
2022/06/03 15:58:44;;;;;;;4.63;2.70;;;;;;;27.67;34.23;100901.05;125024;1102;102356;-77
2022/06/03 16:01:40;;;;;;;5.43;2.40;;;;;;;27.68;34.27;100906.39;125603;1102;104331;-78
2022/06/03 16:04:36;;;;;;;4.43;2.70;;;;;;;27.62;33.72;100915.53;125087;1102;104235;-77
2022/06/03 16:07:29;;;;;;;5.97;2.63;;;;;;;27.53;34.01;100917.61;125701;1099;104197;-78